sensor_id;sensor_type;location;lat;lon;timestamp;P1;durP1;ratioP1;P2;durP2;ratioP2
60610;SDS011;46439;51.164;13.572;2022-08-21T00:00:55;43.40;;;28.60;;
60610;SDS011;46439;51.164;13.572;2022-08-21T00:03:36;42.50;;;29.00;;
60610;SDS011;46439;51.164;13.572;2022-08-21T00:06:07;44.70;;;29.50;;
60610;SDS011;46439;51.164;13.572;2022-08-21T00:08:35;48.00;;;31.10;;
60610;SDS011;46439;51.164;13.572;2022-08-21T00:11:05;49.20;;;31.20;;
60610;SDS011;46439;51.164;13.572;2022-08-21T00:13:37;46.00;;;31.50;;
60610;SDS011;46439;51.164;13.572;2022-08-21T00:16:06;45.80;;;31.10;;
60610;SDS011;46439;51.164;13.572;2022-08-21T00:18:35;47.70;;;32.10;;
60610;SDS011;46439;51.164;13.572;2022-08-21T00:21:05;47.80;;;32.60;;
60610;SDS011;46439;51.164;13.572;2022-08-21T00:23:34;46.50;;;32.10;;
60610;SDS011;46439;51.164;13.572;2022-08-21T00:26:03;47.00;;;31.00;;
60610;SDS011;46439;51.164;13.572;2022-08-21T00:28:32;49.80;;;32.50;;
60610;SDS011;46439;51.164;13.572;2022-08-21T00:31:00;50.40;;;32.90;;
60610;SDS011;46439;51.164;13.572;2022-08-21T00:33:30;51.00;;;31.80;;
60610;SDS011;46439;51.164;13.572;2022-08-21T00:36:00;51.10;;;34.50;;
60610;SDS011;46439;51.164;13.572;2022-08-21T00:38:30;48.30;;;33.00;;
60610;SDS011;46439;51.164;13.572;2022-08-21T00:41:00;53.50;;;34.50;;
60610;SDS011;46439;51.164;13.572;2022-08-21T00:43:31;54.90;;;33.60;;
60610;SDS011;46439;51.164;13.572;2022-08-21T00:46:01;45.80;;;31.90;;
60610;SDS011;46439;51.164;13.572;2022-08-21T00:48:30;56.60;;;34.90;;
60610;SDS011;46439;51.164;13.572;2022-08-21T00:51:02;54.60;;;33.90;;
60610;SDS011;46439;51.164;13.572;2022-08-21T00:53:33;47.70;;;31.70;;
60610;SDS011;46439;51.164;13.572;2022-08-21T00:56:06;49.50;;;32.70;;
60610;SDS011;46439;51.164;13.572;2022-08-21T00:58:36;49.40;;;30.40;;
60610;SDS011;46439;51.164;13.572;2022-08-21T01:01:06;44.00;;;28.50;;
60610;SDS011;46439;51.164;13.572;2022-08-21T01:03:35;41.30;;;27.60;;
60610;SDS011;46439;51.164;13.572;2022-08-21T01:06:04;34.90;;;23.90;;
60610;SDS011;46439;51.164;13.572;2022-08-21T01:08:34;32.70;;;20.30;;
60610;SDS011;46439;51.164;13.572;2022-08-21T01:11:03;27.70;;;19.60;;
60610;SDS011;46439;51.164;13.572;2022-08-21T01:13:34;25.00;;;17.50;;
60610;SDS011;46439;51.164;13.572;2022-08-21T01:16:08;25.00;;;16.70;;
60610;SDS011;46439;51.164;13.572;2022-08-21T01:18:37;23.80;;;16.80;;
60610;SDS011;46439;51.164;13.572;2022-08-21T01:21:09;23.30;;;15.40;;
60610;SDS011;46439;51.164;13.572;2022-08-21T01:23:40;20.60;;;13.30;;
60610;SDS011;46439;51.164;13.572;2022-08-21T01:26:11;21.10;;;13.70;;
60610;SDS011;46439;51.164;13.572;2022-08-21T01:28:42;17.90;;;13.00;;
60610;SDS011;46439;51.164;13.572;2022-08-21T01:31:17;18.40;;;12.00;;
60610;SDS011;46439;51.164;13.572;2022-08-21T01:36:15;16.60;;;11.00;;
60610;SDS011;46439;51.164;13.572;2022-08-21T01:38:44;18.70;;;11.20;;
60610;SDS011;46439;51.164;13.572;2022-08-21T01:41:13;17.00;;;11.70;;
60610;SDS011;46439;51.164;13.572;2022-08-21T01:43:42;15.90;;;12.10;;
60610;SDS011;46439;51.164;13.572;2022-08-21T01:46:11;18.50;;;12.10;;
60610;SDS011;46439;51.164;13.572;2022-08-21T01:48:40;17.60;;;11.40;;
60610;SDS011;46439;51.164;13.572;2022-08-21T01:51:09;16.30;;;11.80;;
60610;SDS011;46439;51.164;13.572;2022-08-21T01:53:38;15.30;;;10.50;;
60610;SDS011;46439;51.164;13.572;2022-08-21T01:56:09;18.00;;;11.50;;
60610;SDS011;46439;51.164;13.572;2022-08-21T01:58:40;17.10;;;12.50;;
60610;SDS011;46439;51.164;13.572;2022-08-21T02:01:10;18.50;;;11.60;;
60610;SDS011;46439;51.164;13.572;2022-08-21T02:03:39;16.90;;;12.50;;
60610;SDS011;46439;51.164;13.572;2022-08-21T02:06:11;18.70;;;12.60;;
60610;SDS011;46439;51.164;13.572;2022-08-21T02:08:41;18.90;;;12.90;;
60610;SDS011;46439;51.164;13.572;2022-08-21T02:11:09;17.00;;;12.30;;
60610;SDS011;46439;51.164;13.572;2022-08-21T02:13:38;16.80;;;12.00;;
60610;SDS011;46439;51.164;13.572;2022-08-21T02:16:07;18.80;;;12.30;;
60610;SDS011;46439;51.164;13.572;2022-08-21T02:18:35;18.00;;;12.60;;
60610;SDS011;46439;51.164;13.572;2022-08-21T02:21:04;17.80;;;12.70;;
60610;SDS011;46439;51.164;13.572;2022-08-21T02:23:33;17.60;;;12.60;;
60610;SDS011;46439;51.164;13.572;2022-08-21T02:26:02;17.80;;;12.50;;
60610;SDS011;46439;51.164;13.572;2022-08-21T02:28:33;17.50;;;12.00;;
60610;SDS011;46439;51.164;13.572;2022-08-21T02:31:03;20.20;;;12.70;;
60610;SDS011;46439;51.164;13.572;2022-08-21T02:33:32;17.80;;;11.80;;
60610;SDS011;46439;51.164;13.572;2022-08-21T02:36:00;17.50;;;12.50;;
60610;SDS011;46439;51.164;13.572;2022-08-21T02:38:32;19.10;;;13.10;;
60610;SDS011;46439;51.164;13.572;2022-08-21T02:41:06;16.80;;;12.00;;
60610;SDS011;46439;51.164;13.572;2022-08-21T02:43:36;19.00;;;12.20;;
60610;SDS011;46439;51.164;13.572;2022-08-21T02:46:08;17.80;;;12.80;;
60610;SDS011;46439;51.164;13.572;2022-08-21T02:48:38;16.70;;;12.40;;
60610;SDS011;46439;51.164;13.572;2022-08-21T02:51:10;16.90;;;11.70;;
60610;SDS011;46439;51.164;13.572;2022-08-21T02:53:41;16.90;;;12.20;;
60610;SDS011;46439;51.164;13.572;2022-08-21T02:56:11;16.40;;;12.50;;
60610;SDS011;46439;51.164;13.572;2022-08-21T02:58:43;19.60;;;13.20;;
60610;SDS011;46439;51.164;13.572;2022-08-21T03:01:13;20.50;;;13.00;;
60610;SDS011;46439;51.164;13.572;2022-08-21T03:03:42;16.80;;;12.80;;
60610;SDS011;46439;51.164;13.572;2022-08-21T03:06:14;19.70;;;14.20;;
60610;SDS011;46439;51.164;13.572;2022-08-21T03:08:44;19.90;;;14.20;;
60610;SDS011;46439;51.164;13.572;2022-08-21T03:11:13;18.90;;;14.30;;
60610;SDS011;46439;51.164;13.572;2022-08-21T03:13:42;18.80;;;13.50;;
60610;SDS011;46439;51.164;13.572;2022-08-21T03:16:10;21.00;;;14.70;;
60610;SDS011;46439;51.164;13.572;2022-08-21T03:18:39;19.70;;;14.80;;
60610;SDS011;46439;51.164;13.572;2022-08-21T03:21:07;21.70;;;14.40;;
60610;SDS011;46439;51.164;13.572;2022-08-21T03:23:35;20.50;;;15.10;;
60610;SDS011;46439;51.164;13.572;2022-08-21T03:26:06;20.20;;;14.90;;
60610;SDS011;46439;51.164;13.572;2022-08-21T03:28:37;21.20;;;15.90;;
60610;SDS011;46439;51.164;13.572;2022-08-21T03:31:05;19.10;;;14.40;;
60610;SDS011;46439;51.164;13.572;2022-08-21T03:33:35;24.00;;;16.00;;
60610;SDS011;46439;51.164;13.572;2022-08-21T03:36:04;24.10;;;16.40;;
60610;SDS011;46439;51.164;13.572;2022-08-21T03:38:35;26.30;;;17.70;;
60610;SDS011;46439;51.164;13.572;2022-08-21T03:41:04;25.90;;;18.50;;
60610;SDS011;46439;51.164;13.572;2022-08-21T03:43:33;24.80;;;17.30;;
60610;SDS011;46439;51.164;13.572;2022-08-21T03:46:02;23.70;;;16.70;;
60610;SDS011;46439;51.164;13.572;2022-08-21T03:48:33;28.40;;;18.40;;
60610;SDS011;46439;51.164;13.572;2022-08-21T03:51:03;30.80;;;20.00;;
60610;SDS011;46439;51.164;13.572;2022-08-21T03:53:32;27.60;;;19.20;;
60610;SDS011;46439;51.164;13.572;2022-08-21T03:56:01;31.50;;;20.50;;
60610;SDS011;46439;51.164;13.572;2022-08-21T03:58:31;31.30;;;21.30;;
60610;SDS011;46439;51.164;13.572;2022-08-21T04:00:59;32.00;;;20.40;;
60610;SDS011;46439;51.164;13.572;2022-08-21T04:03:31;29.70;;;20.10;;
60610;SDS011;46439;51.164;13.572;2022-08-21T04:06:00;30.70;;;20.60;;
60610;SDS011;46439;51.164;13.572;2022-08-21T04:08:30;25.50;;;18.00;;
60610;SDS011;46439;51.164;13.572;2022-08-21T04:10:58;25.00;;;18.70;;
60610;SDS011;46439;51.164;13.572;2022-08-21T04:13:27;28.40;;;18.60;;
60610;SDS011;46439;51.164;13.572;2022-08-21T04:15:56;25.70;;;17.90;;
60610;SDS011;46439;51.164;13.572;2022-08-21T04:18:25;27.20;;;19.30;;
60610;SDS011;46439;51.164;13.572;2022-08-21T04:20:53;29.50;;;19.20;;
60610;SDS011;46439;51.164;13.572;2022-08-21T04:23:24;27.90;;;18.30;;
60610;SDS011;46439;51.164;13.572;2022-08-21T04:25:53;30.50;;;21.00;;
60610;SDS011;46439;51.164;13.572;2022-08-21T04:28:23;28.80;;;20.00;;
60610;SDS011;46439;51.164;13.572;2022-08-21T04:30:53;31.00;;;19.90;;
60610;SDS011;46439;51.164;13.572;2022-08-21T04:33:22;27.90;;;19.60;;
60610;SDS011;46439;51.164;13.572;2022-08-21T04:35:51;29.60;;;19.30;;
60610;SDS011;46439;51.164;13.572;2022-08-21T04:38:20;30.00;;;20.70;;
60610;SDS011;46439;51.164;13.572;2022-08-21T04:40:49;27.90;;;19.50;;
60610;SDS011;46439;51.164;13.572;2022-08-21T04:43:18;29.70;;;19.50;;
60610;SDS011;46439;51.164;13.572;2022-08-21T04:45:50;29.90;;;21.10;;
60610;SDS011;46439;51.164;13.572;2022-08-21T04:48:20;35.50;;;21.90;;
60610;SDS011;46439;51.164;13.572;2022-08-21T04:50:52;30.80;;;21.80;;
60610;SDS011;46439;51.164;13.572;2022-08-21T04:53:24;34.40;;;21.60;;
60610;SDS011;46439;51.164;13.572;2022-08-21T04:55:56;33.30;;;21.10;;
60610;SDS011;46439;51.164;13.572;2022-08-21T04:58:31;29.60;;;21.50;;
60610;SDS011;46439;51.164;13.572;2022-08-21T05:01:00;26.40;;;19.30;;
60610;SDS011;46439;51.164;13.572;2022-08-21T05:03:32;28.00;;;19.70;;
60610;SDS011;46439;51.164;13.572;2022-08-21T05:06:04;28.70;;;20.70;;
60610;SDS011;46439;51.164;13.572;2022-08-21T05:08:36;26.30;;;20.50;;
60610;SDS011;46439;51.164;13.572;2022-08-21T05:11:06;26.20;;;20.20;;
60610;SDS011;46439;51.164;13.572;2022-08-21T05:13:34;27.10;;;19.70;;
60610;SDS011;46439;51.164;13.572;2022-08-21T05:16:04;25.60;;;20.00;;
60610;SDS011;46439;51.164;13.572;2022-08-21T05:18:32;25.00;;;18.40;;
60610;SDS011;46439;51.164;13.572;2022-08-21T05:21:01;25.40;;;16.60;;
60610;SDS011;46439;51.164;13.572;2022-08-21T05:23:30;28.80;;;17.70;;
60610;SDS011;46439;51.164;13.572;2022-08-21T05:25:59;27.40;;;17.60;;
60610;SDS011;46439;51.164;13.572;2022-08-21T05:28:28;25.80;;;17.10;;
60610;SDS011;46439;51.164;13.572;2022-08-21T05:30:56;25.70;;;16.20;;
60610;SDS011;46439;51.164;13.572;2022-08-21T05:33:25;26.70;;;17.20;;
60610;SDS011;46439;51.164;13.572;2022-08-21T05:35:53;24.70;;;16.70;;
60610;SDS011;46439;51.164;13.572;2022-08-21T05:38:22;24.20;;;16.60;;
60610;SDS011;46439;51.164;13.572;2022-08-21T05:40:53;19.60;;;15.30;;
60610;SDS011;46439;51.164;13.572;2022-08-21T05:43:22;20.10;;;15.00;;
60610;SDS011;46439;51.164;13.572;2022-08-21T05:45:50;19.40;;;15.00;;
60610;SDS011;46439;51.164;13.572;2022-08-21T05:48:20;19.90;;;15.30;;
60610;SDS011;46439;51.164;13.572;2022-08-21T05:50:51;20.40;;;14.80;;
60610;SDS011;46439;51.164;13.572;2022-08-21T05:53:21;19.10;;;14.50;;
60610;SDS011;46439;51.164;13.572;2022-08-21T05:55:51;20.70;;;14.70;;
60610;SDS011;46439;51.164;13.572;2022-08-21T05:58:20;19.40;;;14.70;;
60610;SDS011;46439;51.164;13.572;2022-08-21T06:00:52;22.50;;;14.80;;
60610;SDS011;46439;51.164;13.572;2022-08-21T06:03:21;20.50;;;14.30;;
60610;SDS011;46439;51.164;13.572;2022-08-21T06:05:51;18.20;;;14.30;;
60610;SDS011;46439;51.164;13.572;2022-08-21T06:08:21;17.40;;;14.50;;
60610;SDS011;46439;51.164;13.572;2022-08-21T06:10:51;19.30;;;14.60;;
60610;SDS011;46439;51.164;13.572;2022-08-21T06:13:21;20.10;;;14.30;;
60610;SDS011;46439;51.164;13.572;2022-08-21T06:16:00;20.50;;;13.80;;
60610;SDS011;46439;51.164;13.572;2022-08-21T06:18:30;21.10;;;13.90;;
60610;SDS011;46439;51.164;13.572;2022-08-21T06:20:58;19.60;;;13.00;;
60610;SDS011;46439;51.164;13.572;2022-08-21T06:23:27;20.10;;;12.30;;
60610;SDS011;46439;51.164;13.572;2022-08-21T06:25:56;17.10;;;12.30;;
60610;SDS011;46439;51.164;13.572;2022-08-21T06:28:24;19.20;;;11.90;;
60610;SDS011;46439;51.164;13.572;2022-08-21T06:30:53;15.80;;;12.00;;
60610;SDS011;46439;51.164;13.572;2022-08-21T06:33:21;16.10;;;12.80;;
60610;SDS011;46439;51.164;13.572;2022-08-21T06:35:50;16.80;;;11.70;;
60610;SDS011;46439;51.164;13.572;2022-08-21T06:38:19;16.40;;;11.90;;
60610;SDS011;46439;51.164;13.572;2022-08-21T06:40:47;19.10;;;12.10;;
60610;SDS011;46439;51.164;13.572;2022-08-21T06:43:16;16.20;;;12.10;;
60610;SDS011;46439;51.164;13.572;2022-08-21T06:45:45;18.20;;;12.80;;
60610;SDS011;46439;51.164;13.572;2022-08-21T06:48:14;17.30;;;11.80;;
60610;SDS011;46439;51.164;13.572;2022-08-21T06:50:42;15.30;;;12.10;;
60610;SDS011;46439;51.164;13.572;2022-08-21T06:53:12;15.90;;;12.40;;
60610;SDS011;46439;51.164;13.572;2022-08-21T06:55:43;20.20;;;11.80;;
60610;SDS011;46439;51.164;13.572;2022-08-21T06:58:12;16.50;;;12.00;;
60610;SDS011;46439;51.164;13.572;2022-08-21T07:00:43;17.60;;;12.70;;
60610;SDS011;46439;51.164;13.572;2022-08-21T07:05:45;17.90;;;13.40;;
60610;SDS011;46439;51.164;13.572;2022-08-21T07:08:13;14.30;;;12.50;;
60610;SDS011;46439;51.164;13.572;2022-08-21T07:10:43;17.40;;;12.90;;
60610;SDS011;46439;51.164;13.572;2022-08-21T07:13:12;18.90;;;13.40;;
60610;SDS011;46439;51.164;13.572;2022-08-21T07:15:41;17.60;;;12.60;;
60610;SDS011;46439;51.164;13.572;2022-08-21T07:18:11;19.10;;;12.80;;
60610;SDS011;46439;51.164;13.572;2022-08-21T07:20:40;16.00;;;12.10;;
60610;SDS011;46439;51.164;13.572;2022-08-21T07:23:11;16.90;;;12.40;;
60610;SDS011;46439;51.164;13.572;2022-08-21T07:25:49;19.50;;;12.90;;
60610;SDS011;46439;51.164;13.572;2022-08-21T07:28:20;17.70;;;12.40;;
60610;SDS011;46439;51.164;13.572;2022-08-21T07:30:51;16.60;;;12.20;;
60610;SDS011;46439;51.164;13.572;2022-08-21T07:33:22;16.10;;;11.90;;
60610;SDS011;46439;51.164;13.572;2022-08-21T07:35:53;17.70;;;11.70;;
60610;SDS011;46439;51.164;13.572;2022-08-21T07:38:22;20.30;;;12.10;;
60610;SDS011;46439;51.164;13.572;2022-08-21T07:40:51;15.60;;;10.90;;
60610;SDS011;46439;51.164;13.572;2022-08-21T07:43:21;16.10;;;10.70;;
60610;SDS011;46439;51.164;13.572;2022-08-21T07:45:50;17.10;;;11.80;;
60610;SDS011;46439;51.164;13.572;2022-08-21T07:48:20;17.10;;;11.40;;
60610;SDS011;46439;51.164;13.572;2022-08-21T07:50:49;17.40;;;11.20;;
60610;SDS011;46439;51.164;13.572;2022-08-21T07:53:19;21.70;;;11.90;;
60610;SDS011;46439;51.164;13.572;2022-08-21T07:55:48;16.20;;;10.90;;
60610;SDS011;46439;51.164;13.572;2022-08-21T07:58:18;15.60;;;11.10;;
60610;SDS011;46439;51.164;13.572;2022-08-21T08:00:48;14.60;;;11.00;;
60610;SDS011;46439;51.164;13.572;2022-08-21T08:03:19;18.00;;;11.10;;
60610;SDS011;46439;51.164;13.572;2022-08-21T08:05:48;15.10;;;11.00;;
60610;SDS011;46439;51.164;13.572;2022-08-21T08:08:17;17.40;;;10.90;;
60610;SDS011;46439;51.164;13.572;2022-08-21T08:10:46;16.40;;;10.30;;
60610;SDS011;46439;51.164;13.572;2022-08-21T08:13:16;18.80;;;11.10;;
60610;SDS011;46439;51.164;13.572;2022-08-21T08:15:46;17.20;;;10.50;;
60610;SDS011;46439;51.164;13.572;2022-08-21T08:18:14;15.80;;;10.50;;
60610;SDS011;46439;51.164;13.572;2022-08-21T08:20:43;16.20;;;10.00;;
60610;SDS011;46439;51.164;13.572;2022-08-21T08:23:12;15.30;;;10.20;;
60610;SDS011;46439;51.164;13.572;2022-08-21T08:25:42;16.50;;;9.90;;
60610;SDS011;46439;51.164;13.572;2022-08-21T08:28:11;15.70;;;9.30;;
60610;SDS011;46439;51.164;13.572;2022-08-21T08:30:40;14.90;;;7.90;;
60610;SDS011;46439;51.164;13.572;2022-08-21T08:33:09;18.60;;;8.70;;
60610;SDS011;46439;51.164;13.572;2022-08-21T08:35:37;15.30;;;8.60;;
60610;SDS011;46439;51.164;13.572;2022-08-21T08:38:07;15.40;;;9.50;;
60610;SDS011;46439;51.164;13.572;2022-08-21T08:40:37;14.30;;;8.60;;
60610;SDS011;46439;51.164;13.572;2022-08-21T08:43:12;13.80;;;8.60;;
60610;SDS011;46439;51.164;13.572;2022-08-21T08:45:43;14.30;;;8.50;;
60610;SDS011;46439;51.164;13.572;2022-08-21T08:48:19;16.90;;;9.30;;
60610;SDS011;46439;51.164;13.572;2022-08-21T08:51:03;12.50;;;7.20;;
60610;SDS011;46439;51.164;13.572;2022-08-21T08:53:38;16.10;;;7.50;;
60610;SDS011;46439;51.164;13.572;2022-08-21T08:56:15;12.20;;;6.90;;
60610;SDS011;46439;51.164;13.572;2022-08-21T08:58:48;12.70;;;6.30;;
60610;SDS011;46439;51.164;13.572;2022-08-21T09:01:19;15.30;;;6.60;;
60610;SDS011;46439;51.164;13.572;2022-08-21T09:03:51;12.70;;;6.60;;
60610;SDS011;46439;51.164;13.572;2022-08-21T09:06:30;9.60;;;5.60;;
60610;SDS011;46439;51.164;13.572;2022-08-21T09:09:08;9.50;;;5.80;;
60610;SDS011;46439;51.164;13.572;2022-08-21T09:11:46;13.40;;;6.00;;
60610;SDS011;46439;51.164;13.572;2022-08-21T09:14:22;8.90;;;5.10;;
60610;SDS011;46439;51.164;13.572;2022-08-21T09:17:00;11.30;;;6.30;;
60610;SDS011;46439;51.164;13.572;2022-08-21T09:19:48;9.00;;;4.80;;
60610;SDS011;46439;51.164;13.572;2022-08-21T09:22:40;9.20;;;4.90;;
60610;SDS011;46439;51.164;13.572;2022-08-21T09:25:18;11.10;;;5.20;;
60610;SDS011;46439;51.164;13.572;2022-08-21T09:27:50;9.70;;;5.00;;
60610;SDS011;46439;51.164;13.572;2022-08-21T09:30:19;14.10;;;5.30;;
60610;SDS011;46439;51.164;13.572;2022-08-21T09:32:53;12.30;;;5.20;;
60610;SDS011;46439;51.164;13.572;2022-08-21T09:35:22;8.60;;;4.50;;
60610;SDS011;46439;51.164;13.572;2022-08-21T09:37:52;15.10;;;4.60;;
60610;SDS011;46439;51.164;13.572;2022-08-21T09:40:30;12.40;;;4.50;;
60610;SDS011;46439;51.164;13.572;2022-08-21T09:43:04;9.90;;;5.00;;
60610;SDS011;46439;51.164;13.572;2022-08-21T09:45:39;10.70;;;4.60;;
60610;SDS011;46439;51.164;13.572;2022-08-21T09:48:13;15.30;;;4.50;;
60610;SDS011;46439;51.164;13.572;2022-08-21T09:50:45;8.20;;;4.00;;
60610;SDS011;46439;51.164;13.572;2022-08-21T09:53:17;10.00;;;4.10;;
60610;SDS011;46439;51.164;13.572;2022-08-21T09:55:51;8.70;;;3.80;;
60610;SDS011;46439;51.164;13.572;2022-08-21T09:58:42;8.70;;;3.90;;
60610;SDS011;46439;51.164;13.572;2022-08-21T10:01:15;13.50;;;3.90;;
60610;SDS011;46439;51.164;13.572;2022-08-21T10:03:46;8.50;;;3.20;;
60610;SDS011;46439;51.164;13.572;2022-08-21T10:06:22;7.30;;;3.40;;
60610;SDS011;46439;51.164;13.572;2022-08-21T10:09:02;8.90;;;3.40;;
60610;SDS011;46439;51.164;13.572;2022-08-21T10:11:33;5.90;;;3.20;;
60610;SDS011;46439;51.164;13.572;2022-08-21T10:14:05;4.90;;;2.60;;
60610;SDS011;46439;51.164;13.572;2022-08-21T10:16:43;9.30;;;3.40;;
60610;SDS011;46439;51.164;13.572;2022-08-21T10:19:23;11.60;;;3.50;;
60610;SDS011;46439;51.164;13.572;2022-08-21T10:22:01;8.70;;;3.40;;
60610;SDS011;46439;51.164;13.572;2022-08-21T10:24:40;8.90;;;3.00;;
60610;SDS011;46439;51.164;13.572;2022-08-21T10:27:20;10.20;;;3.00;;
60610;SDS011;46439;51.164;13.572;2022-08-21T10:29:57;8.10;;;3.30;;
60610;SDS011;46439;51.164;13.572;2022-08-21T10:32:37;6.90;;;2.70;;
60610;SDS011;46439;51.164;13.572;2022-08-21T10:35:20;13.40;;;3.60;;
60610;SDS011;46439;51.164;13.572;2022-08-21T10:38:08;6.60;;;2.80;;
60610;SDS011;46439;51.164;13.572;2022-08-21T10:40:55;7.50;;;2.80;;
60610;SDS011;46439;51.164;13.572;2022-08-21T10:43:31;8.80;;;2.70;;
60610;SDS011;46439;51.164;13.572;2022-08-21T10:46:07;7.00;;;2.60;;
60610;SDS011;46439;51.164;13.572;2022-08-21T10:48:47;9.30;;;2.50;;
60610;SDS011;46439;51.164;13.572;2022-08-21T10:51:23;8.10;;;2.40;;
60610;SDS011;46439;51.164;13.572;2022-08-21T10:53:57;9.00;;;2.70;;
60610;SDS011;46439;51.164;13.572;2022-08-21T10:56:32;5.40;;;2.30;;
60610;SDS011;46439;51.164;13.572;2022-08-21T10:59:07;5.90;;;2.30;;
60610;SDS011;46439;51.164;13.572;2022-08-21T11:01:51;5.60;;;2.20;;
60610;SDS011;46439;51.164;13.572;2022-08-21T11:04:25;9.40;;;2.50;;
60610;SDS011;46439;51.164;13.572;2022-08-21T11:07:00;9.30;;;3.00;;
60610;SDS011;46439;51.164;13.572;2022-08-21T11:09:32;8.80;;;2.70;;
60610;SDS011;46439;51.164;13.572;2022-08-21T11:12:03;9.10;;;2.60;;
60610;SDS011;46439;51.164;13.572;2022-08-21T11:14:41;7.90;;;2.30;;
60610;SDS011;46439;51.164;13.572;2022-08-21T11:17:20;14.00;;;3.20;;
60610;SDS011;46439;51.164;13.572;2022-08-21T11:19:57;9.20;;;2.60;;
60610;SDS011;46439;51.164;13.572;2022-08-21T11:22:33;8.00;;;2.20;;
60610;SDS011;46439;51.164;13.572;2022-08-21T11:25:13;5.60;;;2.20;;
60610;SDS011;46439;51.164;13.572;2022-08-21T11:27:49;8.70;;;2.20;;
60610;SDS011;46439;51.164;13.572;2022-08-21T11:30:22;6.80;;;2.10;;
60610;SDS011;46439;51.164;13.572;2022-08-21T11:33:07;7.80;;;2.50;;
60610;SDS011;46439;51.164;13.572;2022-08-21T11:35:45;6.30;;;2.30;;
60610;SDS011;46439;51.164;13.572;2022-08-21T11:38:24;6.80;;;2.20;;
60610;SDS011;46439;51.164;13.572;2022-08-21T11:41:05;4.80;;;2.20;;
60610;SDS011;46439;51.164;13.572;2022-08-21T11:43:44;8.10;;;2.30;;
60610;SDS011;46439;51.164;13.572;2022-08-21T11:48:51;5.00;;;2.20;;
60610;SDS011;46439;51.164;13.572;2022-08-21T11:51:27;6.10;;;2.50;;
60610;SDS011;46439;51.164;13.572;2022-08-21T11:54:02;4.50;;;1.80;;
60610;SDS011;46439;51.164;13.572;2022-08-21T11:56:34;7.10;;;2.50;;
60610;SDS011;46439;51.164;13.572;2022-08-21T11:59:10;10.00;;;2.30;;
60610;SDS011;46439;51.164;13.572;2022-08-21T12:01:44;6.80;;;2.20;;
60610;SDS011;46439;51.164;13.572;2022-08-21T12:04:18;6.60;;;2.10;;
60610;SDS011;46439;51.164;13.572;2022-08-21T12:06:53;7.00;;;2.20;;
60610;SDS011;46439;51.164;13.572;2022-08-21T12:09:32;7.90;;;2.20;;
60610;SDS011;46439;51.164;13.572;2022-08-21T12:12:04;5.40;;;2.10;;
60610;SDS011;46439;51.164;13.572;2022-08-21T12:14:39;7.80;;;2.20;;
60610;SDS011;46439;51.164;13.572;2022-08-21T12:17:17;8.20;;;2.40;;
60610;SDS011;46439;51.164;13.572;2022-08-21T12:19:57;6.00;;;2.40;;
60610;SDS011;46439;51.164;13.572;2022-08-21T12:22:41;6.50;;;2.40;;
60610;SDS011;46439;51.164;13.572;2022-08-21T12:25:17;7.20;;;2.10;;
60610;SDS011;46439;51.164;13.572;2022-08-21T12:27:49;5.70;;;2.20;;
60610;SDS011;46439;51.164;13.572;2022-08-21T12:30:22;10.20;;;2.70;;
60610;SDS011;46439;51.164;13.572;2022-08-21T12:33:00;6.70;;;2.60;;
60610;SDS011;46439;51.164;13.572;2022-08-21T12:35:33;8.30;;;2.40;;
60610;SDS011;46439;51.164;13.572;2022-08-21T12:38:07;7.70;;;2.10;;
60610;SDS011;46439;51.164;13.572;2022-08-21T12:40:43;7.10;;;2.20;;
60610;SDS011;46439;51.164;13.572;2022-08-21T12:43:14;5.00;;;2.20;;
60610;SDS011;46439;51.164;13.572;2022-08-21T12:45:47;8.90;;;2.20;;
60610;SDS011;46439;51.164;13.572;2022-08-21T12:48:20;7.80;;;2.20;;
60610;SDS011;46439;51.164;13.572;2022-08-21T12:50:53;8.30;;;2.20;;
60610;SDS011;46439;51.164;13.572;2022-08-21T12:53:25;5.00;;;2.20;;
60610;SDS011;46439;51.164;13.572;2022-08-21T12:55:57;6.40;;;2.10;;
60610;SDS011;46439;51.164;13.572;2022-08-21T12:58:30;6.10;;;1.90;;
60610;SDS011;46439;51.164;13.572;2022-08-21T13:01:01;6.10;;;2.10;;
60610;SDS011;46439;51.164;13.572;2022-08-21T13:03:35;6.10;;;1.90;;
60610;SDS011;46439;51.164;13.572;2022-08-21T13:06:04;6.90;;;2.40;;
60610;SDS011;46439;51.164;13.572;2022-08-21T13:08:39;105.70;;;78.50;;
60610;SDS011;46439;51.164;13.572;2022-08-21T13:11:09;11.70;;;4.10;;
60610;SDS011;46439;51.164;13.572;2022-08-21T13:13:41;7.20;;;2.50;;
60610;SDS011;46439;51.164;13.572;2022-08-21T13:16:17;7.00;;;2.10;;
60610;SDS011;46439;51.164;13.572;2022-08-21T13:18:57;5.70;;;2.00;;
60610;SDS011;46439;51.164;13.572;2022-08-21T13:21:31;9.20;;;2.30;;
60610;SDS011;46439;51.164;13.572;2022-08-21T13:24:10;9.30;;;2.60;;
60610;SDS011;46439;51.164;13.572;2022-08-21T13:26:44;9.00;;;2.60;;
60610;SDS011;46439;51.164;13.572;2022-08-21T13:29:15;8.80;;;2.30;;
60610;SDS011;46439;51.164;13.572;2022-08-21T13:31:48;8.50;;;2.10;;
60610;SDS011;46439;51.164;13.572;2022-08-21T13:34:19;5.40;;;1.80;;
60610;SDS011;46439;51.164;13.572;2022-08-21T13:36:50;5.30;;;2.10;;
60610;SDS011;46439;51.164;13.572;2022-08-21T13:39:22;4.80;;;1.70;;
60610;SDS011;46439;51.164;13.572;2022-08-21T13:41:51;5.90;;;2.40;;
60610;SDS011;46439;51.164;13.572;2022-08-21T13:46:53;7.80;;;2.30;;
60610;SDS011;46439;51.164;13.572;2022-08-21T13:49:26;5.60;;;1.90;;
60610;SDS011;46439;51.164;13.572;2022-08-21T13:51:58;7.80;;;2.30;;
60610;SDS011;46439;51.164;13.572;2022-08-21T13:54:28;4.70;;;2.00;;
60610;SDS011;46439;51.164;13.572;2022-08-21T13:57:00;5.60;;;1.80;;
60610;SDS011;46439;51.164;13.572;2022-08-21T13:59:31;5.00;;;1.80;;
60610;SDS011;46439;51.164;13.572;2022-08-21T14:02:01;9.40;;;5.80;;
60610;SDS011;46439;51.164;13.572;2022-08-21T14:04:39;4.10;;;1.90;;
60610;SDS011;46439;51.164;13.572;2022-08-21T14:07:19;11.80;;;3.20;;
60610;SDS011;46439;51.164;13.572;2022-08-21T14:09:52;6.60;;;2.00;;
60610;SDS011;46439;51.164;13.572;2022-08-21T14:12:26;4.60;;;1.80;;
60610;SDS011;46439;51.164;13.572;2022-08-21T14:15:01;3.70;;;1.80;;
60610;SDS011;46439;51.164;13.572;2022-08-21T14:17:32;5.30;;;1.80;;
60610;SDS011;46439;51.164;13.572;2022-08-21T14:20:04;5.00;;;1.80;;
60610;SDS011;46439;51.164;13.572;2022-08-21T14:22:38;4.60;;;1.90;;
60610;SDS011;46439;51.164;13.572;2022-08-21T14:25:10;4.20;;;2.00;;
60610;SDS011;46439;51.164;13.572;2022-08-21T14:27:44;7.90;;;2.30;;
60610;SDS011;46439;51.164;13.572;2022-08-21T14:30:26;4.70;;;1.80;;
60610;SDS011;46439;51.164;13.572;2022-08-21T14:32:58;5.90;;;2.00;;
60610;SDS011;46439;51.164;13.572;2022-08-21T14:35:27;6.30;;;2.00;;
60610;SDS011;46439;51.164;13.572;2022-08-21T14:37:56;4.70;;;1.70;;
60610;SDS011;46439;51.164;13.572;2022-08-21T14:40:24;3.90;;;1.70;;
60610;SDS011;46439;51.164;13.572;2022-08-21T14:45:26;5.20;;;1.80;;
60610;SDS011;46439;51.164;13.572;2022-08-21T14:47:57;3.60;;;1.90;;
60610;SDS011;46439;51.164;13.572;2022-08-21T14:50:25;5.10;;;1.70;;
60610;SDS011;46439;51.164;13.572;2022-08-21T14:52:54;2.40;;;1.30;;
60610;SDS011;46439;51.164;13.572;2022-08-21T14:55:23;3.90;;;1.80;;
60610;SDS011;46439;51.164;13.572;2022-08-21T14:57:52;5.30;;;1.80;;